sensor_id;sensor_type;location;lat;lon;timestamp;P1;durP1;ratioP1;P2;durP2;ratioP2
10333;SDS011;5212;47.892;16.406;2023-02-13T00:00:21;10.20;;;8.20;;
10333;SDS011;5212;47.892;16.406;2023-02-13T00:02:48;15.37;;;10.50;;
10333;SDS011;5212;47.892;16.406;2023-02-13T00:05:15;14.83;;;9.57;;
10333;SDS011;5212;47.892;16.406;2023-02-13T00:07:41;10.93;;;8.10;;
10333;SDS011;5212;47.892;16.406;2023-02-13T00:10:09;11.40;;;8.90;;
10333;SDS011;5212;47.892;16.406;2023-02-13T00:12:36;8.60;;;7.23;;
10333;SDS011;5212;47.892;16.406;2023-02-13T00:15:06;8.60;;;6.70;;
10333;SDS011;5212;47.892;16.406;2023-02-13T00:17:33;9.23;;;7.00;;
10333;SDS011;5212;47.892;16.406;2023-02-13T00:19:59;10.20;;;6.60;;
10333;SDS011;5212;47.892;16.406;2023-02-13T00:22:26;10.20;;;7.43;;
10333;SDS011;5212;47.892;16.406;2023-02-13T00:24:52;8.53;;;6.43;;
10333;SDS011;5212;47.892;16.406;2023-02-13T00:27:19;10.33;;;7.60;;
10333;SDS011;5212;47.892;16.406;2023-02-13T00:29:45;11.43;;;7.40;;
10333;SDS011;5212;47.892;16.406;2023-02-13T00:32:12;9.60;;;6.60;;
10333;SDS011;5212;47.892;16.406;2023-02-13T00:34:39;10.30;;;7.20;;
10333;SDS011;5212;47.892;16.406;2023-02-13T00:37:05;11.40;;;8.17;;
10333;SDS011;5212;47.892;16.406;2023-02-13T00:39:31;11.90;;;8.07;;
10333;SDS011;5212;47.892;16.406;2023-02-13T00:41:58;13.00;;;8.33;;
10333;SDS011;5212;47.892;16.406;2023-02-13T00:44:24;10.87;;;7.33;;
10333;SDS011;5212;47.892;16.406;2023-02-13T00:46:51;12.93;;;8.57;;
10333;SDS011;5212;47.892;16.406;2023-02-13T00:49:18;13.73;;;8.67;;
10333;SDS011;5212;47.892;16.406;2023-02-13T00:51:44;13.07;;;8.40;;
10333;SDS011;5212;47.892;16.406;2023-02-13T00:54:11;10.37;;;7.10;;
10333;SDS011;5212;47.892;16.406;2023-02-13T00:56:38;8.63;;;6.70;;
10333;SDS011;5212;47.892;16.406;2023-02-13T00:59:04;8.53;;;5.80;;
10333;SDS011;5212;47.892;16.406;2023-02-13T01:01:30;8.60;;;6.10;;
10333;SDS011;5212;47.892;16.406;2023-02-13T01:03:57;9.70;;;6.90;;
10333;SDS011;5212;47.892;16.406;2023-02-13T01:06:24;11.37;;;8.13;;
10333;SDS011;5212;47.892;16.406;2023-02-13T01:08:50;10.43;;;7.23;;
10333;SDS011;5212;47.892;16.406;2023-02-13T01:11:16;9.63;;;6.57;;
10333;SDS011;5212;47.892;16.406;2023-02-13T01:13:43;11.30;;;6.63;;
10333;SDS011;5212;47.892;16.406;2023-02-13T01:16:09;10.73;;;7.27;;
10333;SDS011;5212;47.892;16.406;2023-02-13T01:18:37;10.93;;;7.60;;
10333;SDS011;5212;47.892;16.406;2023-02-13T01:21:05;12.33;;;9.07;;
10333;SDS011;5212;47.892;16.406;2023-02-13T01:23:35;13.60;;;7.93;;
10333;SDS011;5212;47.892;16.406;2023-02-13T01:26:02;10.73;;;8.00;;
10333;SDS011;5212;47.892;16.406;2023-02-13T01:28:29;10.53;;;7.83;;
10333;SDS011;5212;47.892;16.406;2023-02-13T01:30:56;11.77;;;8.03;;
10333;SDS011;5212;47.892;16.406;2023-02-13T01:33:22;11.97;;;8.50;;
10333;SDS011;5212;47.892;16.406;2023-02-13T01:35:50;11.73;;;8.17;;
10333;SDS011;5212;47.892;16.406;2023-02-13T01:38:16;10.63;;;7.43;;
10333;SDS011;5212;47.892;16.406;2023-02-13T01:40:47;9.37;;;7.00;;
10333;SDS011;5212;47.892;16.406;2023-02-13T01:43:14;9.07;;;6.20;;
10333;SDS011;5212;47.892;16.406;2023-02-13T01:45:40;9.17;;;7.00;;
10333;SDS011;5212;47.892;16.406;2023-02-13T01:48:10;11.70;;;7.30;;
10333;SDS011;5212;47.892;16.406;2023-02-13T01:50:39;8.80;;;7.10;;
10333;SDS011;5212;47.892;16.406;2023-02-13T01:53:09;10.23;;;6.73;;
10333;SDS011;5212;47.892;16.406;2023-02-13T01:55:38;8.50;;;5.93;;
10333;SDS011;5212;47.892;16.406;2023-02-13T01:58:12;10.30;;;6.83;;
10333;SDS011;5212;47.892;16.406;2023-02-13T02:00:40;8.30;;;5.87;;
10333;SDS011;5212;47.892;16.406;2023-02-13T02:03:07;7.83;;;5.47;;
10333;SDS011;5212;47.892;16.406;2023-02-13T02:05:36;8.40;;;5.90;;
10333;SDS011;5212;47.892;16.406;2023-02-13T02:08:03;8.30;;;6.23;;
10333;SDS011;5212;47.892;16.406;2023-02-13T02:10:32;9.77;;;7.00;;
10333;SDS011;5212;47.892;16.406;2023-02-13T02:13:00;8.00;;;6.00;;
10333;SDS011;5212;47.892;16.406;2023-02-13T02:15:30;9.27;;;5.80;;
10333;SDS011;5212;47.892;16.406;2023-02-13T02:17:57;7.37;;;5.60;;
10333;SDS011;5212;47.892;16.406;2023-02-13T02:20:27;8.00;;;5.47;;
10333;SDS011;5212;47.892;16.406;2023-02-13T02:26:14;8.23;;;6.23;;
10333;SDS011;5212;47.892;16.406;2023-02-13T02:29:05;8.87;;;5.47;;
10333;SDS011;5212;47.892;16.406;2023-02-13T02:34:47;8.40;;;5.53;;
10333;SDS011;5212;47.892;16.406;2023-02-13T02:37:26;7.90;;;5.60;;
10333;SDS011;5212;47.892;16.406;2023-02-13T02:40:10;8.77;;;6.37;;
10333;SDS011;5212;47.892;16.406;2023-02-13T02:42:49;8.37;;;5.97;;
10333;SDS011;5212;47.892;16.406;2023-02-13T02:45:23;8.00;;;5.13;;
10333;SDS011;5212;47.892;16.406;2023-02-13T02:47:57;8.43;;;5.83;;
10333;SDS011;5212;47.892;16.406;2023-02-13T02:50:43;10.37;;;6.73;;
10333;SDS011;5212;47.892;16.406;2023-02-13T02:53:20;8.30;;;6.33;;
10333;SDS011;5212;47.892;16.406;2023-02-13T02:55:53;8.40;;;6.27;;
10333;SDS011;5212;47.892;16.406;2023-02-13T02:58:23;9.00;;;5.87;;
10333;SDS011;5212;47.892;16.406;2023-02-13T03:01:11;8.47;;;5.80;;
10333;SDS011;5212;47.892;16.406;2023-02-13T03:03:58;8.13;;;6.10;;
10333;SDS011;5212;47.892;16.406;2023-02-13T03:06:44;7.57;;;5.97;;
10333;SDS011;5212;47.892;16.406;2023-02-13T03:09:14;8.37;;;5.80;;
10333;SDS011;5212;47.892;16.406;2023-02-13T03:12:01;7.67;;;5.33;;
10333;SDS011;5212;47.892;16.406;2023-02-13T03:14:42;7.33;;;5.13;;
10333;SDS011;5212;47.892;16.406;2023-02-13T03:17:09;8.40;;;5.77;;
10333;SDS011;5212;47.892;16.406;2023-02-13T03:19:56;7.67;;;5.43;;
10333;SDS011;5212;47.892;16.406;2023-02-13T03:22:49;7.47;;;5.43;;
10333;SDS011;5212;47.892;16.406;2023-02-13T03:25:25;7.03;;;5.20;;
10333;SDS011;5212;47.892;16.406;2023-02-13T03:28:00;8.10;;;5.17;;
10333;SDS011;5212;47.892;16.406;2023-02-13T03:30:57;8.37;;;5.13;;
10333;SDS011;5212;47.892;16.406;2023-02-13T03:33:32;7.63;;;5.33;;
10333;SDS011;5212;47.892;16.406;2023-02-13T03:36:08;7.80;;;5.50;;
10333;SDS011;5212;47.892;16.406;2023-02-13T03:38:59;7.93;;;5.80;;
10333;SDS011;5212;47.892;16.406;2023-02-13T03:41:30;6.70;;;5.13;;
10333;SDS011;5212;47.892;16.406;2023-02-13T03:44:03;6.17;;;4.70;;
10333;SDS011;5212;47.892;16.406;2023-02-13T03:46:38;7.20;;;4.90;;
10333;SDS011;5212;47.892;16.406;2023-02-13T03:49:06;6.10;;;4.80;;
10333;SDS011;5212;47.892;16.406;2023-02-13T03:51:57;6.47;;;4.63;;
10333;SDS011;5212;47.892;16.406;2023-02-13T03:54:27;6.20;;;4.93;;
10333;SDS011;5212;47.892;16.406;2023-02-13T03:57:14;7.30;;;5.03;;
10333;SDS011;5212;47.892;16.406;2023-02-13T04:00:02;6.53;;;4.73;;
10333;SDS011;5212;47.892;16.406;2023-02-13T04:02:31;7.50;;;4.80;;
10333;SDS011;5212;47.892;16.406;2023-02-13T04:05:02;8.77;;;4.57;;
10333;SDS011;5212;47.892;16.406;2023-02-13T04:07:32;5.47;;;4.30;;
10333;SDS011;5212;47.892;16.406;2023-02-13T04:10:00;5.63;;;4.10;;
10333;SDS011;5212;47.892;16.406;2023-02-13T04:12:31;7.90;;;5.00;;
10333;SDS011;5212;47.892;16.406;2023-02-13T04:15:03;5.07;;;4.03;;
10333;SDS011;5212;47.892;16.406;2023-02-13T04:17:35;6.63;;;4.40;;
10333;SDS011;5212;47.892;16.406;2023-02-13T04:20:04;5.53;;;4.37;;
10333;SDS011;5212;47.892;16.406;2023-02-13T04:22:33;5.70;;;4.20;;
10333;SDS011;5212;47.892;16.406;2023-02-13T04:25:00;5.63;;;4.40;;
10333;SDS011;5212;47.892;16.406;2023-02-13T04:27:26;5.77;;;4.50;;
10333;SDS011;5212;47.892;16.406;2023-02-13T04:29:53;5.20;;;4.17;;
10333;SDS011;5212;47.892;16.406;2023-02-13T04:32:19;5.93;;;3.93;;
10333;SDS011;5212;47.892;16.406;2023-02-13T04:34:46;5.60;;;4.40;;
10333;SDS011;5212;47.892;16.406;2023-02-13T04:37:12;6.53;;;4.77;;
10333;SDS011;5212;47.892;16.406;2023-02-13T04:39:40;5.30;;;4.10;;
10333;SDS011;5212;47.892;16.406;2023-02-13T04:42:06;5.53;;;4.10;;
10333;SDS011;5212;47.892;16.406;2023-02-13T04:44:33;6.30;;;4.27;;
10333;SDS011;5212;47.892;16.406;2023-02-13T04:46:59;5.13;;;4.07;;
10333;SDS011;5212;47.892;16.406;2023-02-13T04:49:26;5.30;;;4.10;;
10333;SDS011;5212;47.892;16.406;2023-02-13T04:51:52;5.20;;;4.10;;
10333;SDS011;5212;47.892;16.406;2023-02-13T04:54:18;4.87;;;4.03;;
10333;SDS011;5212;47.892;16.406;2023-02-13T04:56:46;4.63;;;3.40;;
10333;SDS011;5212;47.892;16.406;2023-02-13T04:59:12;5.07;;;3.97;;
10333;SDS011;5212;47.892;16.406;2023-02-13T05:01:39;5.17;;;3.70;;
10333;SDS011;5212;47.892;16.406;2023-02-13T05:04:07;5.00;;;3.60;;
10333;SDS011;5212;47.892;16.406;2023-02-13T05:06:35;4.93;;;3.70;;
10333;SDS011;5212;47.892;16.406;2023-02-13T05:09:02;4.47;;;3.43;;
10333;SDS011;5212;47.892;16.406;2023-02-13T05:11:28;4.13;;;3.50;;
10333;SDS011;5212;47.892;16.406;2023-02-13T05:13:56;7.53;;;5.23;;
10333;SDS011;5212;47.892;16.406;2023-02-13T05:16:25;37.30;;;20.17;;
10333;SDS011;5212;47.892;16.406;2023-02-13T05:18:51;31.30;;;15.77;;
10333;SDS011;5212;47.892;16.406;2023-02-13T05:21:19;31.33;;;15.33;;
10333;SDS011;5212;47.892;16.406;2023-02-13T05:24:03;13.60;;;7.97;;
10333;SDS011;5212;47.892;16.406;2023-02-13T05:26:30;10.50;;;6.70;;
10333;SDS011;5212;47.892;16.406;2023-02-13T05:28:57;10.17;;;5.90;;
10333;SDS011;5212;47.892;16.406;2023-02-13T05:31:41;7.50;;;4.60;;
10333;SDS011;5212;47.892;16.406;2023-02-13T05:34:08;6.93;;;4.30;;
10333;SDS011;5212;47.892;16.406;2023-02-13T05:36:34;5.30;;;4.07;;
10333;SDS011;5212;47.892;16.406;2023-02-13T05:39:00;6.47;;;4.00;;
10333;SDS011;5212;47.892;16.406;2023-02-13T05:41:27;5.20;;;4.07;;
10333;SDS011;5212;47.892;16.406;2023-02-13T05:43:53;6.27;;;4.13;;
10333;SDS011;5212;47.892;16.406;2023-02-13T05:46:21;6.57;;;4.00;;
10333;SDS011;5212;47.892;16.406;2023-02-13T05:48:47;4.77;;;3.77;;
10333;SDS011;5212;47.892;16.406;2023-02-13T05:51:13;4.77;;;3.73;;
10333;SDS011;5212;47.892;16.406;2023-02-13T05:53:40;5.33;;;3.67;;
10333;SDS011;5212;47.892;16.406;2023-02-13T05:56:06;5.50;;;3.90;;
10333;SDS011;5212;47.892;16.406;2023-02-13T05:58:33;5.27;;;3.97;;
10333;SDS011;5212;47.892;16.406;2023-02-13T06:00:59;4.93;;;3.60;;
10333;SDS011;5212;47.892;16.406;2023-02-13T06:03:27;5.67;;;3.80;;
10333;SDS011;5212;47.892;16.406;2023-02-13T06:05:54;5.50;;;3.40;;
10333;SDS011;5212;47.892;16.406;2023-02-13T06:08:21;4.57;;;3.50;;
10333;SDS011;5212;47.892;16.406;2023-02-13T06:10:47;5.00;;;3.37;;
10333;SDS011;5212;47.892;16.406;2023-02-13T06:13:15;5.63;;;4.67;;
10333;SDS011;5212;47.892;16.406;2023-02-13T06:15:41;6.67;;;4.50;;
10333;SDS011;5212;47.892;16.406;2023-02-13T06:18:08;4.70;;;3.73;;
10333;SDS011;5212;47.892;16.406;2023-02-13T06:20:35;5.23;;;3.53;;
10333;SDS011;5212;47.892;16.406;2023-02-13T06:23:02;4.53;;;3.63;;
10333;SDS011;5212;47.892;16.406;2023-02-13T06:25:29;4.27;;;3.47;;
10333;SDS011;5212;47.892;16.406;2023-02-13T06:27:55;5.00;;;3.97;;
10333;SDS011;5212;47.892;16.406;2023-02-13T06:30:21;7.00;;;4.53;;
10333;SDS011;5212;47.892;16.406;2023-02-13T06:32:48;5.87;;;4.20;;
10333;SDS011;5212;47.892;16.406;2023-02-13T06:35:14;5.27;;;3.90;;
10333;SDS011;5212;47.892;16.406;2023-02-13T06:37:42;5.27;;;4.23;;
10333;SDS011;5212;47.892;16.406;2023-02-13T06:40:09;5.53;;;4.50;;
10333;SDS011;5212;47.892;16.406;2023-02-13T06:42:36;5.40;;;3.93;;
10333;SDS011;5212;47.892;16.406;2023-02-13T06:45:03;5.47;;;3.87;;
10333;SDS011;5212;47.892;16.406;2023-02-13T06:47:30;5.50;;;3.40;;
10333;SDS011;5212;47.892;16.406;2023-02-13T06:49:57;6.40;;;3.80;;
10333;SDS011;5212;47.892;16.406;2023-02-13T06:52:23;4.97;;;3.87;;
10333;SDS011;5212;47.892;16.406;2023-02-13T06:54:51;4.77;;;3.83;;
10333;SDS011;5212;47.892;16.406;2023-02-13T06:57:17;5.60;;;4.23;;
10333;SDS011;5212;47.892;16.406;2023-02-13T06:59:43;5.83;;;3.87;;
10333;SDS011;5212;47.892;16.406;2023-02-13T07:02:10;5.13;;;3.97;;
10333;SDS011;5212;47.892;16.406;2023-02-13T07:04:37;6.40;;;4.03;;
10333;SDS011;5212;47.892;16.406;2023-02-13T07:07:03;4.57;;;3.53;;
10333;SDS011;5212;47.892;16.406;2023-02-13T07:09:30;4.77;;;3.87;;
10333;SDS011;5212;47.892;16.406;2023-02-13T07:11:58;5.43;;;4.00;;
10333;SDS011;5212;47.892;16.406;2023-02-13T07:14:27;5.27;;;4.07;;
10333;SDS011;5212;47.892;16.406;2023-02-13T07:16:54;5.63;;;4.20;;
10333;SDS011;5212;47.892;16.406;2023-02-13T07:19:20;4.90;;;4.10;;
10333;SDS011;5212;47.892;16.406;2023-02-13T07:21:46;5.67;;;4.30;;
10333;SDS011;5212;47.892;16.406;2023-02-13T07:24:13;7.40;;;4.57;;
10333;SDS011;5212;47.892;16.406;2023-02-13T07:26:39;5.53;;;4.23;;
10333;SDS011;5212;47.892;16.406;2023-02-13T07:29:06;7.80;;;4.50;;
10333;SDS011;5212;47.892;16.406;2023-02-13T07:31:33;5.77;;;4.20;;
10333;SDS011;5212;47.892;16.406;2023-02-13T07:34:00;6.07;;;4.60;;
10333;SDS011;5212;47.892;16.406;2023-02-13T07:36:26;6.17;;;4.37;;
10333;SDS011;5212;47.892;16.406;2023-02-13T07:38:53;6.77;;;4.20;;
10333;SDS011;5212;47.892;16.406;2023-02-13T07:41:19;8.47;;;4.80;;
10333;SDS011;5212;47.892;16.406;2023-02-13T07:43:45;6.00;;;4.53;;
10333;SDS011;5212;47.892;16.406;2023-02-13T07:46:12;6.07;;;4.40;;
10333;SDS011;5212;47.892;16.406;2023-02-13T07:48:39;6.37;;;4.60;;
10333;SDS011;5212;47.892;16.406;2023-02-13T07:51:05;5.47;;;4.07;;
10333;SDS011;5212;47.892;16.406;2023-02-13T07:53:32;6.17;;;4.27;;
10333;SDS011;5212;47.892;16.406;2023-02-13T07:55:58;5.67;;;4.20;;
10333;SDS011;5212;47.892;16.406;2023-02-13T07:58:25;7.60;;;5.03;;
10333;SDS011;5212;47.892;16.406;2023-02-13T08:00:51;6.33;;;4.27;;
10333;SDS011;5212;47.892;16.406;2023-02-13T08:03:19;8.07;;;5.17;;
10333;SDS011;5212;47.892;16.406;2023-02-13T08:05:45;7.03;;;4.93;;
10333;SDS011;5212;47.892;16.406;2023-02-13T08:08:12;6.57;;;4.50;;
10333;SDS011;5212;47.892;16.406;2023-02-13T08:10:39;8.23;;;5.30;;
10333;SDS011;5212;47.892;16.406;2023-02-13T08:13:23;6.73;;;5.10;;
10333;SDS011;5212;47.892;16.406;2023-02-13T08:15:50;6.63;;;4.97;;
10333;SDS011;5212;47.892;16.406;2023-02-13T08:18:16;7.20;;;4.57;;
10333;SDS011;5212;47.892;16.406;2023-02-13T08:20:43;7.70;;;4.90;;
10333;SDS011;5212;47.892;16.406;2023-02-13T08:23:10;6.67;;;4.97;;
10333;SDS011;5212;47.892;16.406;2023-02-13T08:25:37;6.13;;;4.80;;
10333;SDS011;5212;47.892;16.406;2023-02-13T08:28:03;7.37;;;5.53;;
10333;SDS011;5212;47.892;16.406;2023-02-13T08:30:30;7.57;;;4.53;;
10333;SDS011;5212;47.892;16.406;2023-02-13T08:32:57;8.23;;;5.87;;
10333;SDS011;5212;47.892;16.406;2023-02-13T08:35:23;7.10;;;5.27;;
10333;SDS011;5212;47.892;16.406;2023-02-13T08:37:54;7.70;;;5.33;;
10333;SDS011;5212;47.892;16.406;2023-02-13T08:40:20;6.73;;;4.93;;
10333;SDS011;5212;47.892;16.406;2023-02-13T08:42:47;5.93;;;4.80;;
10333;SDS011;5212;47.892;16.406;2023-02-13T08:45:13;6.30;;;4.77;;
10333;SDS011;5212;47.892;16.406;2023-02-13T08:47:39;5.77;;;4.80;;
10333;SDS011;5212;47.892;16.406;2023-02-13T08:50:06;6.63;;;4.67;;
10333;SDS011;5212;47.892;16.406;2023-02-13T08:52:33;6.93;;;5.30;;
10333;SDS011;5212;47.892;16.406;2023-02-13T08:55:01;6.93;;;5.23;;
10333;SDS011;5212;47.892;16.406;2023-02-13T08:57:28;57.10;;;32.23;;
10333;SDS011;5212;47.892;16.406;2023-02-13T08:59:55;27.63;;;18.13;;
10333;SDS011;5212;47.892;16.406;2023-02-13T09:02:21;18.77;;;12.33;;
10333;SDS011;5212;47.892;16.406;2023-02-13T09:04:48;14.23;;;8.97;;
10333;SDS011;5212;47.892;16.406;2023-02-13T09:07:14;11.50;;;8.03;;
10333;SDS011;5212;47.892;16.406;2023-02-13T09:09:41;10.60;;;7.30;;
10333;SDS011;5212;47.892;16.406;2023-02-13T09:12:08;10.87;;;6.83;;
10333;SDS011;5212;47.892;16.406;2023-02-13T09:14:34;8.73;;;5.87;;
10333;SDS011;5212;47.892;16.406;2023-02-13T09:17:03;8.77;;;5.63;;
10333;SDS011;5212;47.892;16.406;2023-02-13T09:19:29;9.27;;;5.20;;
10333;SDS011;5212;47.892;16.406;2023-02-13T09:21:55;6.80;;;5.13;;
10333;SDS011;5212;47.892;16.406;2023-02-13T09:24:22;8.53;;;5.70;;
10333;SDS011;5212;47.892;16.406;2023-02-13T09:26:48;7.40;;;5.30;;
10333;SDS011;5212;47.892;16.406;2023-02-13T09:29:15;15.77;;;9.13;;
10333;SDS011;5212;47.892;16.406;2023-02-13T09:31:42;29.70;;;19.63;;
10333;SDS011;5212;47.892;16.406;2023-02-13T09:34:08;33.93;;;20.73;;
10333;SDS011;5212;47.892;16.406;2023-02-13T09:36:35;25.37;;;16.97;;
10333;SDS011;5212;47.892;16.406;2023-02-13T09:39:01;30.50;;;18.03;;
10333;SDS011;5212;47.892;16.406;2023-02-13T09:41:28;22.00;;;13.60;;
10333;SDS011;5212;47.892;16.406;2023-02-13T09:44:00;21.13;;;12.87;;
10333;SDS011;5212;47.892;16.406;2023-02-13T09:46:31;15.27;;;9.43;;
10333;SDS011;5212;47.892;16.406;2023-02-13T09:48:58;12.43;;;8.67;;
10333;SDS011;5212;47.892;16.406;2023-02-13T09:51:27;26.50;;;16.13;;
10333;SDS011;5212;47.892;16.406;2023-02-13T09:53:54;45.03;;;27.47;;
10333;SDS011;5212;47.892;16.406;2023-02-13T09:56:26;26.20;;;14.60;;
10333;SDS011;5212;47.892;16.406;2023-02-13T09:59:05;17.57;;;10.60;;
10333;SDS011;5212;47.892;16.406;2023-02-13T10:01:38;14.60;;;9.00;;
10333;SDS011;5212;47.892;16.406;2023-02-13T10:04:13;64.17;;;36.63;;
10333;SDS011;5212;47.892;16.406;2023-02-13T10:06:48;96.60;;;47.27;;
10333;SDS011;5212;47.892;16.406;2023-02-13T10:09:20;68.17;;;35.27;;
10333;SDS011;5212;47.892;16.406;2023-02-13T10:14:46;47.10;;;24.90;;
10333;SDS011;5212;47.892;16.406;2023-02-13T10:17:20;32.00;;;18.67;;
10333;SDS011;5212;47.892;16.406;2023-02-13T10:19:49;30.70;;;18.17;;
10333;SDS011;5212;47.892;16.406;2023-02-13T10:22:20;21.50;;;14.33;;
10333;SDS011;5212;47.892;16.406;2023-02-13T10:24:49;17.83;;;12.20;;
10333;SDS011;5212;47.892;16.406;2023-02-13T10:27:19;15.33;;;10.07;;
10333;SDS011;5212;47.892;16.406;2023-02-13T10:29:50;14.20;;;9.20;;
10333;SDS011;5212;47.892;16.406;2023-02-13T10:32:35;12.20;;;8.87;;
10333;SDS011;5212;47.892;16.406;2023-02-13T10:35:14;13.40;;;9.13;;
10333;SDS011;5212;47.892;16.406;2023-02-13T10:37:46;12.87;;;7.87;;
10333;SDS011;5212;47.892;16.406;2023-02-13T10:40:15;14.10;;;8.63;;
10333;SDS011;5212;47.892;16.406;2023-02-13T10:42:43;12.47;;;8.17;;
10333;SDS011;5212;47.892;16.406;2023-02-13T10:45:17;11.53;;;8.27;;
10333;SDS011;5212;47.892;16.406;2023-02-13T10:47:56;11.13;;;7.70;;
10333;SDS011;5212;47.892;16.406;2023-02-13T10:50:32;12.33;;;7.90;;
10333;SDS011;5212;47.892;16.406;2023-02-13T10:53:05;12.30;;;8.27;;
10333;SDS011;5212;47.892;16.406;2023-02-13T10:58:37;11.77;;;8.23;;
10333;SDS011;5212;47.892;16.406;2023-02-13T11:01:12;9.93;;;7.00;;
10333;SDS011;5212;47.892;16.406;2023-02-13T11:03:43;10.40;;;7.03;;
10333;SDS011;5212;47.892;16.406;2023-02-13T11:06:13;9.23;;;6.47;;
10333;SDS011;5212;47.892;16.406;2023-02-13T11:08:41;8.47;;;6.30;;
10333;SDS011;5212;47.892;16.406;2023-02-13T11:14:09;11.40;;;8.50;;
10333;SDS011;5212;47.892;16.406;2023-02-13T11:16:46;15.00;;;10.70;;
10333;SDS011;5212;47.892;16.406;2023-02-13T11:19:19;18.47;;;11.30;;
10333;SDS011;5212;47.892;16.406;2023-02-13T11:21:52;16.33;;;11.83;;
10333;SDS011;5212;47.892;16.406;2023-02-13T11:24:20;18.67;;;10.90;;
10333;SDS011;5212;47.892;16.406;2023-02-13T11:26:51;15.87;;;11.33;;
10333;SDS011;5212;47.892;16.406;2023-02-13T11:29:21;17.17;;;12.13;;
10333;SDS011;5212;47.892;16.406;2023-02-13T11:32:00;22.60;;;14.50;;
10333;SDS011;5212;47.892;16.406;2023-02-13T11:34:32;18.80;;;13.77;;
10333;SDS011;5212;47.892;16.406;2023-02-13T11:39:51;8.00;;;6.43;;
10333;SDS011;5212;47.892;16.406;2023-02-13T11:42:28;7.87;;;6.20;;
10333;SDS011;5212;47.892;16.406;2023-02-13T11:44:57;8.30;;;5.90;;
10333;SDS011;5212;47.892;16.406;2023-02-13T11:47:29;6.83;;;5.30;;
10333;SDS011;5212;47.892;16.406;2023-02-13T11:49:58;6.97;;;5.30;;
10333;SDS011;5212;47.892;16.406;2023-02-13T11:52:26;6.33;;;5.07;;
10333;SDS011;5212;47.892;16.406;2023-02-13T11:54:54;7.33;;;4.77;;
10333;SDS011;5212;47.892;16.406;2023-02-13T11:57:22;7.77;;;4.97;;
10333;SDS011;5212;47.892;16.406;2023-02-13T11:59:49;5.93;;;4.87;;
10333;SDS011;5212;47.892;16.406;2023-02-13T12:02:17;6.93;;;4.30;;
10333;SDS011;5212;47.892;16.406;2023-02-13T12:04:45;4.90;;;4.00;;
10333;SDS011;5212;47.892;16.406;2023-02-13T12:07:15;5.47;;;4.27;;
10333;SDS011;5212;47.892;16.406;2023-02-13T12:09:44;6.67;;;4.43;;
10333;SDS011;5212;47.892;16.406;2023-02-13T12:12:14;5.87;;;4.30;;
10333;SDS011;5212;47.892;16.406;2023-02-13T12:14:43;5.07;;;4.17;;
10333;SDS011;5212;47.892;16.406;2023-02-13T12:17:11;5.60;;;4.30;;
10333;SDS011;5212;47.892;16.406;2023-02-13T12:19:38;5.80;;;4.10;;
10333;SDS011;5212;47.892;16.406;2023-02-13T12:22:09;6.73;;;4.70;;
10333;SDS011;5212;47.892;16.406;2023-02-13T12:24:50;5.20;;;4.43;;
10333;SDS011;5212;47.892;16.406;2023-02-13T12:27:26;5.97;;;4.67;;
10333;SDS011;5212;47.892;16.406;2023-02-13T12:30:03;4.93;;;4.27;;
10333;SDS011;5212;47.892;16.406;2023-02-13T12:32:41;5.47;;;4.20;;
10333;SDS011;5212;47.892;16.406;2023-02-13T12:35:24;6.73;;;4.37;;
10333;SDS011;5212;47.892;16.406;2023-02-13T12:37:58;5.93;;;4.27;;
10333;SDS011;5212;47.892;16.406;2023-02-13T12:43:25;5.73;;;4.57;;
10333;SDS011;5212;47.892;16.406;2023-02-13T12:46:02;6.07;;;4.43;;
10333;SDS011;5212;47.892;16.406;2023-02-13T12:48:33;7.30;;;4.63;;
10333;SDS011;5212;47.892;16.406;2023-02-13T12:51:09;5.90;;;4.43;;
10333;SDS011;5212;47.892;16.406;2023-02-13T12:53:48;9.13;;;5.67;;
10333;SDS011;5212;47.892;16.406;2023-02-13T12:56:24;7.43;;;5.80;;
10333;SDS011;5212;47.892;16.406;2023-02-13T12:59:08;6.70;;;5.37;;
10333;SDS011;5212;47.892;16.406;2023-02-13T13:01:46;6.53;;;5.30;;
10333;SDS011;5212;47.892;16.406;2023-02-13T13:04:34;8.80;;;5.93;;
10333;SDS011;5212;47.892;16.406;2023-02-13T13:07:17;7.13;;;5.77;;
10333;SDS011;5212;47.892;16.406;2023-02-13T13:12:44;7.03;;;5.87;;
10333;SDS011;5212;47.892;16.406;2023-02-13T13:15:15;7.90;;;5.60;;
10333;SDS011;5212;47.892;16.406;2023-02-13T13:17:50;7.97;;;5.67;;
10333;SDS011;5212;47.892;16.406;2023-02-13T13:20:35;9.47;;;6.70;;
10333;SDS011;5212;47.892;16.406;2023-02-13T13:23:09;7.43;;;5.73;;
10333;SDS011;5212;47.892;16.406;2023-02-13T13:25:41;8.20;;;6.33;;
10333;SDS011;5212;47.892;16.406;2023-02-13T13:28:13;6.93;;;5.67;;
10333;SDS011;5212;47.892;16.406;2023-02-13T13:30:42;8.20;;;5.77;;
10333;SDS011;5212;47.892;16.406;2023-02-13T13:33:10;7.77;;;5.97;;
10333;SDS011;5212;47.892;16.406;2023-02-13T13:35:40;7.30;;;5.77;;
10333;SDS011;5212;47.892;16.406;2023-02-13T13:38:10;6.20;;;5.27;;
10333;SDS011;5212;47.892;16.406;2023-02-13T13:40:44;6.90;;;5.77;;
10333;SDS011;5212;47.892;16.406;2023-02-13T13:43:19;6.30;;;5.27;;
10333;SDS011;5212;47.892;16.406;2023-02-13T13:45:51;6.73;;;5.17;;
10333;SDS011;5212;47.892;16.406;2023-02-13T13:51:21;7.87;;;6.00;;
10333;SDS011;5212;47.892;16.406;2023-02-13T13:57:27;7.87;;;5.70;;
10333;SDS011;5212;47.892;16.406;2023-02-13T14:11:04;8.13;;;6.63;;
10333;SDS011;5212;47.892;16.406;2023-02-13T14:24:15;8.03;;;5.60;;
10333;SDS011;5212;47.892;16.406;2023-02-13T14:26:48;8.97;;;7.00;;
10333;SDS011;5212;47.892;16.406;2023-02-13T14:29:23;6.83;;;5.10;;
10333;SDS011;5212;47.892;16.406;2023-02-13T14:32:01;7.10;;;5.57;;
10333;SDS011;5212;47.892;16.406;2023-02-13T14:34:31;7.77;;;5.70;;
10333;SDS011;5212;47.892;16.406;2023-02-13T14:37:01;6.67;;;5.53;;
10333;SDS011;5212;47.892;16.406;2023-02-13T14:39:42;6.80;;;5.70;;
10333;SDS011;5212;47.892;16.406;2023-02-13T14:42:20;10.23;;;6.60;;
10333;SDS011;5212;47.892;16.406;2023-02-13T14:44:50;7.33;;;5.97;;
10333;SDS011;5212;47.892;16.406;2023-02-13T14:47:18;8.27;;;4.80;;
10333;SDS011;5212;47.892;16.406;2023-02-13T14:49:47;5.13;;;4.20;;
10333;SDS011;5212;47.892;16.406;2023-02-13T14:52:15;5.93;;;4.70;;
10333;SDS011;5212;47.892;16.406;2023-02-13T14:54:45;7.57;;;5.53;;
10333;SDS011;5212;47.892;16.406;2023-02-13T14:57:14;6.93;;;5.43;;
10333;SDS011;5212;47.892;16.406;2023-02-13T14:59:44;5.00;;;4.20;;
10333;SDS011;5212;47.892;16.406;2023-02-13T15:02:14;5.23;;;4.10;;
10333;SDS011;5212;47.892;16.406;2023-02-13T15:04:44;5.30;;;4.53;;
10333;SDS011;5212;47.892;16.406;2023-02-13T15:07:13;5.53;;;4.80;;
10333;SDS011;5212;47.892;16.406;2023-02-13T15:09:44;6.10;;;4.90;;
10333;SDS011;5212;47.892;16.406;2023-02-13T15:12:29;6.33;;;4.83;;
10333;SDS011;5212;47.892;16.406;2023-02-13T15:14:57;4.67;;;3.60;;
10333;SDS011;5212;47.892;16.406;2023-02-13T15:17:26;5.93;;;4.93;;
10333;SDS011;5212;47.892;16.406;2023-02-13T15:19:54;6.47;;;5.30;;
10333;SDS011;5212;47.892;16.406;2023-02-13T15:22:30;5.60;;;4.93;;
10333;SDS011;5212;47.892;16.406;2023-02-13T15:24:59;6.53;;;5.37;;
10333;SDS011;5212;47.892;16.406;2023-02-13T15:27:26;6.23;;;5.03;;
10333;SDS011;5212;47.892;16.406;2023-02-13T15:29:54;7.30;;;5.30;;
10333;SDS011;5212;47.892;16.406;2023-02-13T15:32:26;6.40;;;5.10;;
10333;SDS011;5212;47.892;16.406;2023-02-13T15:34:54;5.73;;;4.80;;
10333;SDS011;5212;47.892;16.406;2023-02-13T15:37:21;6.60;;;5.27;;
10333;SDS011;5212;47.892;16.406;2023-02-13T15:39:48;6.13;;;5.30;;
10333;SDS011;5212;47.892;16.406;2023-02-13T15:42:15;5.37;;;4.40;;
10333;SDS011;5212;47.892;16.406;2023-02-13T15:44:42;7.47;;;5.47;;
10333;SDS011;5212;47.892;16.406;2023-02-13T15:47:14;5.93;;;4.70;;
10333;SDS011;5212;47.892;16.406;2023-02-13T15:49:45;7.83;;;6.17;;
10333;SDS011;5212;47.892;16.406;2023-02-13T15:52:13;7.70;;;6.20;;